sensor_id;sensor_type;location;lat;lon;timestamp;P1;durP1;ratioP1;P2;durP2;ratioP2
7487;SDS011;3785;52.260;4.728;2023-07-20T00:01:17;1.15;;;0.63;;
7487;SDS011;3785;52.260;4.728;2023-07-20T00:04:37;1.80;;;0.65;;
7487;SDS011;3785;52.260;4.728;2023-07-20T00:07:58;1.50;;;0.75;;
7487;SDS011;3785;52.260;4.728;2023-07-20T00:11:18;1.23;;;0.60;;
7487;SDS011;3785;52.260;4.728;2023-07-20T00:14:39;1.08;;;0.70;;
7487;SDS011;3785;52.260;4.728;2023-07-20T00:17:59;1.17;;;0.65;;
7487;SDS011;3785;52.260;4.728;2023-07-20T00:21:20;1.98;;;0.75;;
7487;SDS011;3785;52.260;4.728;2023-07-20T00:24:41;1.58;;;0.82;;
7487;SDS011;3785;52.260;4.728;2023-07-20T00:28:01;1.38;;;0.50;;
7487;SDS011;3785;52.260;4.728;2023-07-20T00:31:22;1.52;;;0.98;;
7487;SDS011;3785;52.260;4.728;2023-07-20T00:34:42;2.88;;;0.98;;
7487;SDS011;3785;52.260;4.728;2023-07-20T00:38:03;1.30;;;1.10;;
7487;SDS011;3785;52.260;4.728;2023-07-20T00:41:24;1.45;;;1.00;;
7487;SDS011;3785;52.260;4.728;2023-07-20T00:44:44;1.27;;;0.70;;
7487;SDS011;3785;52.260;4.728;2023-07-20T00:48:05;2.45;;;0.90;;
7487;SDS011;3785;52.260;4.728;2023-07-20T00:51:27;1.13;;;0.90;;
7487;SDS011;3785;52.260;4.728;2023-07-20T00:54:47;2.45;;;1.23;;
7487;SDS011;3785;52.260;4.728;2023-07-20T00:58:08;1.20;;;0.80;;
7487;SDS011;3785;52.260;4.728;2023-07-20T01:01:28;1.17;;;0.65;;
7487;SDS011;3785;52.260;4.728;2023-07-20T01:04:49;2.10;;;0.80;;
7487;SDS011;3785;52.260;4.728;2023-07-20T01:12:14;1.52;;;0.73;;
7487;SDS011;3785;52.260;4.728;2023-07-20T01:15:42;1.27;;;0.80;;
7487;SDS011;3785;52.260;4.728;2023-07-20T01:19:10;0.95;;;0.68;;
7487;SDS011;3785;52.260;4.728;2023-07-20T01:22:42;1.42;;;0.82;;
7487;SDS011;3785;52.260;4.728;2023-07-20T01:26:22;1.00;;;0.70;;
7487;SDS011;3785;52.260;4.728;2023-07-20T01:30:14;1.30;;;0.80;;
7487;SDS011;3785;52.260;4.728;2023-07-20T01:33:58;1.45;;;0.98;;
7487;SDS011;3785;52.260;4.728;2023-07-20T01:37:20;1.23;;;0.60;;
7487;SDS011;3785;52.260;4.728;2023-07-20T01:40:45;1.13;;;0.70;;
7487;SDS011;3785;52.260;4.728;2023-07-20T01:44:06;1.63;;;0.80;;
7487;SDS011;3785;52.260;4.728;2023-07-20T01:47:27;1.55;;;0.65;;
7487;SDS011;3785;52.260;4.728;2023-07-20T01:50:47;2.13;;;0.90;;
7487;SDS011;3785;52.260;4.728;2023-07-20T01:54:08;1.65;;;0.90;;
7487;SDS011;3785;52.260;4.728;2023-07-20T01:57:28;1.45;;;1.00;;
7487;SDS011;3785;52.260;4.728;2023-07-20T02:00:49;1.75;;;1.00;;
7487;SDS011;3785;52.260;4.728;2023-07-20T02:04:09;2.50;;;1.10;;
7487;SDS011;3785;52.260;4.728;2023-07-20T02:07:30;1.73;;;1.08;;
7487;SDS011;3785;52.260;4.728;2023-07-20T02:10:51;2.22;;;0.90;;
7487;SDS011;3785;52.260;4.728;2023-07-20T02:14:12;1.10;;;0.80;;
7487;SDS011;3785;52.260;4.728;2023-07-20T02:17:33;1.92;;;1.00;;
7487;SDS011;3785;52.260;4.728;2023-07-20T02:20:53;2.53;;;1.20;;
7487;SDS011;3785;52.260;4.728;2023-07-20T02:24:14;2.30;;;1.38;;
7487;SDS011;3785;52.260;4.728;2023-07-20T02:27:35;2.35;;;1.35;;
7487;SDS011;3785;52.260;4.728;2023-07-20T02:30:55;2.33;;;1.50;;
7487;SDS011;3785;52.260;4.728;2023-07-20T02:34:16;2.28;;;1.52;;
7487;SDS011;3785;52.260;4.728;2023-07-20T02:37:36;2.33;;;1.58;;
7487;SDS011;3785;52.260;4.728;2023-07-20T02:40:57;4.55;;;1.60;;
7487;SDS011;3785;52.260;4.728;2023-07-20T02:44:17;2.85;;;1.98;;
7487;SDS011;3785;52.260;4.728;2023-07-20T02:47:38;2.60;;;1.90;;
7487;SDS011;3785;52.260;4.728;2023-07-20T02:50:59;2.40;;;1.77;;
7487;SDS011;3785;52.260;4.728;2023-07-20T02:54:21;3.80;;;1.83;;
7487;SDS011;3785;52.260;4.728;2023-07-20T02:57:41;3.00;;;2.00;;
7487;SDS011;3785;52.260;4.728;2023-07-20T03:01:02;2.78;;;1.92;;
7487;SDS011;3785;52.260;4.728;2023-07-20T03:04:23;3.83;;;2.40;;
7487;SDS011;3785;52.260;4.728;2023-07-20T03:07:46;3.58;;;2.30;;
7487;SDS011;3785;52.260;4.728;2023-07-20T03:11:07;4.30;;;2.83;;
7487;SDS011;3785;52.260;4.728;2023-07-20T03:14:27;4.38;;;2.58;;
7487;SDS011;3785;52.260;4.728;2023-07-20T03:17:48;4.03;;;2.60;;
7487;SDS011;3785;52.260;4.728;2023-07-20T03:21:09;3.70;;;2.38;;
7487;SDS011;3785;52.260;4.728;2023-07-20T03:24:33;3.38;;;2.03;;
7487;SDS011;3785;52.260;4.728;2023-07-20T03:27:54;3.30;;;1.98;;
7487;SDS011;3785;52.260;4.728;2023-07-20T03:31:14;3.78;;;2.05;;
7487;SDS011;3785;52.260;4.728;2023-07-20T03:34:35;3.33;;;2.72;;
7487;SDS011;3785;52.260;4.728;2023-07-20T03:37:55;3.40;;;2.40;;
7487;SDS011;3785;52.260;4.728;2023-07-20T03:41:16;4.00;;;2.30;;
7487;SDS011;3785;52.260;4.728;2023-07-20T03:44:36;3.50;;;1.90;;
7487;SDS011;3785;52.260;4.728;2023-07-20T03:47:57;3.33;;;2.15;;
7487;SDS011;3785;52.260;4.728;2023-07-20T03:51:18;2.50;;;1.58;;
7487;SDS011;3785;52.260;4.728;2023-07-20T03:54:38;3.05;;;2.00;;
7487;SDS011;3785;52.260;4.728;2023-07-20T03:57:59;3.65;;;1.80;;
7487;SDS011;3785;52.260;4.728;2023-07-20T04:01:19;2.45;;;1.67;;
7487;SDS011;3785;52.260;4.728;2023-07-20T04:04:40;3.88;;;1.77;;
7487;SDS011;3785;52.260;4.728;2023-07-20T04:08:00;2.30;;;1.63;;
7487;SDS011;3785;52.260;4.728;2023-07-20T04:11:21;3.10;;;1.80;;
7487;SDS011;3785;52.260;4.728;2023-07-20T04:14:41;2.60;;;1.65;;
7487;SDS011;3785;52.260;4.728;2023-07-20T04:18:02;2.20;;;1.60;;
7487;SDS011;3785;52.260;4.728;2023-07-20T04:21:23;2.83;;;1.90;;
7487;SDS011;3785;52.260;4.728;2023-07-20T04:24:45;2.67;;;1.60;;
7487;SDS011;3785;52.260;4.728;2023-07-20T04:28:09;2.53;;;1.60;;
7487;SDS011;3785;52.260;4.728;2023-07-20T04:31:29;3.22;;;1.40;;
7487;SDS011;3785;52.260;4.728;2023-07-20T04:34:53;2.15;;;1.55;;
7487;SDS011;3785;52.260;4.728;2023-07-20T04:38:14;4.97;;;1.67;;
7487;SDS011;3785;52.260;4.728;2023-07-20T04:41:37;3.33;;;1.95;;
7487;SDS011;3785;52.260;4.728;2023-07-20T04:44:58;2.42;;;1.55;;
7487;SDS011;3785;52.260;4.728;2023-07-20T04:48:18;2.92;;;2.05;;
7487;SDS011;3785;52.260;4.728;2023-07-20T04:51:39;4.00;;;2.70;;
7487;SDS011;3785;52.260;4.728;2023-07-20T04:55:00;3.70;;;2.85;;
7487;SDS011;3785;52.260;4.728;2023-07-20T04:58:21;5.75;;;2.67;;
7487;SDS011;3785;52.260;4.728;2023-07-20T05:01:42;3.63;;;2.20;;
7487;SDS011;3785;52.260;4.728;2023-07-20T05:05:03;3.50;;;2.28;;
7487;SDS011;3785;52.260;4.728;2023-07-20T05:08:25;4.18;;;2.20;;
7487;SDS011;3785;52.260;4.728;2023-07-20T05:11:48;3.00;;;2.22;;
7487;SDS011;3785;52.260;4.728;2023-07-20T05:15:08;4.05;;;2.72;;
7487;SDS011;3785;52.260;4.728;2023-07-20T05:18:29;3.78;;;2.60;;
7487;SDS011;3785;52.260;4.728;2023-07-20T05:21:51;4.10;;;2.80;;
7487;SDS011;3785;52.260;4.728;2023-07-20T05:25:11;3.88;;;2.90;;
7487;SDS011;3785;52.260;4.728;2023-07-20T05:28:32;3.92;;;2.92;;
7487;SDS011;3785;52.260;4.728;2023-07-20T05:31:52;3.78;;;2.92;;
7487;SDS011;3785;52.260;4.728;2023-07-20T05:35:13;3.92;;;2.88;;
7487;SDS011;3785;52.260;4.728;2023-07-20T05:38:35;3.75;;;3.25;;
7487;SDS011;3785;52.260;4.728;2023-07-20T05:41:55;4.88;;;2.58;;
7487;SDS011;3785;52.260;4.728;2023-07-20T05:45:16;3.35;;;2.50;;
7487;SDS011;3785;52.260;4.728;2023-07-20T05:48:36;3.33;;;2.45;;
7487;SDS011;3785;52.260;4.728;2023-07-20T05:51:57;4.07;;;2.30;;
7487;SDS011;3785;52.260;4.728;2023-07-20T05:55:18;4.00;;;2.25;;
7487;SDS011;3785;52.260;4.728;2023-07-20T05:58:38;3.80;;;2.03;;
7487;SDS011;3785;52.260;4.728;2023-07-20T06:01:59;3.30;;;1.80;;
7487;SDS011;3785;52.260;4.728;2023-07-20T06:05:19;3.55;;;2.58;;
7487;SDS011;3785;52.260;4.728;2023-07-20T06:08:41;1.60;;;1.20;;
7487;SDS011;3785;52.260;4.728;2023-07-20T06:12:01;1.80;;;1.20;;
7487;SDS011;3785;52.260;4.728;2023-07-20T06:15:26;2.05;;;1.10;;
7487;SDS011;3785;52.260;4.728;2023-07-20T06:18:48;1.30;;;0.90;;
7487;SDS011;3785;52.260;4.728;2023-07-20T06:22:08;1.90;;;0.90;;
7487;SDS011;3785;52.260;4.728;2023-07-20T06:25:29;1.33;;;0.80;;
7487;SDS011;3785;52.260;4.728;2023-07-20T06:28:50;0.82;;;0.70;;
7487;SDS011;3785;52.260;4.728;2023-07-20T06:32:10;1.40;;;0.70;;
7487;SDS011;3785;52.260;4.728;2023-07-20T06:35:31;1.98;;;0.80;;
7487;SDS011;3785;52.260;4.728;2023-07-20T06:38:51;1.63;;;0.80;;
7487;SDS011;3785;52.260;4.728;2023-07-20T06:42:12;0.95;;;0.68;;
7487;SDS011;3785;52.260;4.728;2023-07-20T06:45:33;1.00;;;0.60;;
7487;SDS011;3785;52.260;4.728;2023-07-20T06:48:53;1.45;;;0.50;;
7487;SDS011;3785;52.260;4.728;2023-07-20T06:52:15;3.22;;;1.23;;
7487;SDS011;3785;52.260;4.728;2023-07-20T06:55:35;1.48;;;0.50;;
7487;SDS011;3785;52.260;4.728;2023-07-20T06:58:56;1.10;;;0.40;;
7487;SDS011;3785;52.260;4.728;2023-07-20T07:02:16;0.57;;;0.45;;
7487;SDS011;3785;52.260;4.728;2023-07-20T07:05:38;1.13;;;0.38;;
7487;SDS011;3785;52.260;4.728;2023-07-20T07:08:58;1.00;;;0.50;;
7487;SDS011;3785;52.260;4.728;2023-07-20T07:12:19;0.75;;;0.50;;
7487;SDS011;3785;52.260;4.728;2023-07-20T07:15:39;0.88;;;0.55;;
7487;SDS011;3785;52.260;4.728;2023-07-20T07:19:00;0.43;;;0.30;;
7487;SDS011;3785;52.260;4.728;2023-07-20T07:22:21;0.77;;;0.57;;
7487;SDS011;3785;52.260;4.728;2023-07-20T07:25:41;0.85;;;0.43;;
7487;SDS011;3785;52.260;4.728;2023-07-20T07:29:02;1.17;;;0.60;;
7487;SDS011;3785;52.260;4.728;2023-07-20T07:32:24;0.65;;;0.40;;
7487;SDS011;3785;52.260;4.728;2023-07-20T07:35:44;0.70;;;0.40;;
7487;SDS011;3785;52.260;4.728;2023-07-20T07:39:05;1.35;;;0.50;;
7487;SDS011;3785;52.260;4.728;2023-07-20T07:42:25;0.65;;;0.35;;
7487;SDS011;3785;52.260;4.728;2023-07-20T07:45:46;0.95;;;0.40;;
7487;SDS011;3785;52.260;4.728;2023-07-20T07:49:06;0.30;;;0.22;;
7487;SDS011;3785;52.260;4.728;2023-07-20T07:52:27;0.73;;;0.20;;
7487;SDS011;3785;52.260;4.728;2023-07-20T07:55:47;1.20;;;0.47;;
7487;SDS011;3785;52.260;4.728;2023-07-20T07:59:08;0.85;;;0.40;;
7487;SDS011;3785;52.260;4.728;2023-07-20T08:02:29;0.60;;;0.40;;
7487;SDS011;3785;52.260;4.728;2023-07-20T08:05:49;0.73;;;0.40;;
7487;SDS011;3785;52.260;4.728;2023-07-20T08:09:10;0.50;;;0.30;;
7487;SDS011;3785;52.260;4.728;2023-07-20T08:12:30;0.98;;;0.38;;
7487;SDS011;3785;52.260;4.728;2023-07-20T08:15:51;0.30;;;0.30;;
7487;SDS011;3785;52.260;4.728;2023-07-20T08:19:12;1.33;;;0.30;;
7487;SDS011;3785;52.260;4.728;2023-07-20T08:22:33;0.85;;;0.32;;
7487;SDS011;3785;52.260;4.728;2023-07-20T08:25:54;0.45;;;0.20;;
7487;SDS011;3785;52.260;4.728;2023-07-20T08:29:15;1.13;;;0.50;;
7487;SDS011;3785;52.260;4.728;2023-07-20T08:32:35;1.23;;;0.50;;
7487;SDS011;3785;52.260;4.728;2023-07-20T08:35:56;0.55;;;0.20;;
7487;SDS011;3785;52.260;4.728;2023-07-20T08:39:17;0.60;;;0.30;;
7487;SDS011;3785;52.260;4.728;2023-07-20T08:42:38;0.38;;;0.32;;
7487;SDS011;3785;52.260;4.728;2023-07-20T08:45:58;0.20;;;0.17;;
7487;SDS011;3785;52.260;4.728;2023-07-20T08:49:19;0.90;;;0.30;;
7487;SDS011;3785;52.260;4.728;2023-07-20T08:52:40;1.15;;;0.32;;
7487;SDS011;3785;52.260;4.728;2023-07-20T08:56:00;1.23;;;0.30;;
7487;SDS011;3785;52.260;4.728;2023-07-20T08:59:22;0.65;;;0.25;;
7487;SDS011;3785;52.260;4.728;2023-07-20T09:02:43;1.27;;;0.38;;
7487;SDS011;3785;52.260;4.728;2023-07-20T09:06:05;1.20;;;0.45;;
7487;SDS011;3785;52.260;4.728;2023-07-20T09:09:26;0.40;;;0.30;;
7487;SDS011;3785;52.260;4.728;2023-07-20T09:12:46;0.80;;;0.52;;
7487;SDS011;3785;52.260;4.728;2023-07-20T09:16:08;0.77;;;0.35;;
7487;SDS011;3785;52.260;4.728;2023-07-20T09:19:30;0.47;;;0.32;;
7487;SDS011;3785;52.260;4.728;2023-07-20T09:22:51;0.45;;;0.20;;
7487;SDS011;3785;52.260;4.728;2023-07-20T09:26:13;0.20;;;0.20;;
7487;SDS011;3785;52.260;4.728;2023-07-20T09:29:39;1.08;;;0.50;;
7487;SDS011;3785;52.260;4.728;2023-07-20T09:33:18;0.70;;;0.30;;
7487;SDS011;3785;52.260;4.728;2023-07-20T09:36:39;0.30;;;0.20;;
7487;SDS011;3785;52.260;4.728;2023-07-20T09:40:00;0.60;;;0.32;;
7487;SDS011;3785;52.260;4.728;2023-07-20T09:43:20;0.45;;;0.25;;
7487;SDS011;3785;52.260;4.728;2023-07-20T09:46:42;0.50;;;0.30;;
7487;SDS011;3785;52.260;4.728;2023-07-20T09:50:04;0.50;;;0.38;;
7487;SDS011;3785;52.260;4.728;2023-07-20T09:53:30;0.60;;;0.30;;
7487;SDS011;3785;52.260;4.728;2023-07-20T09:56:53;0.43;;;0.30;;
7487;SDS011;3785;52.260;4.728;2023-07-20T10:00:14;0.35;;;0.22;;
7487;SDS011;3785;52.260;4.728;2023-07-20T10:03:36;1.55;;;0.20;;
7487;SDS011;3785;52.260;4.728;2023-07-20T10:06:57;0.52;;;0.35;;
7487;SDS011;3785;52.260;4.728;2023-07-20T10:10:19;0.38;;;0.20;;
7487;SDS011;3785;52.260;4.728;2023-07-20T10:13:40;0.75;;;0.30;;
7487;SDS011;3785;52.260;4.728;2023-07-20T10:17:01;0.70;;;0.30;;
7487;SDS011;3785;52.260;4.728;2023-07-20T10:20:22;0.43;;;0.28;;
7487;SDS011;3785;52.260;4.728;2023-07-20T10:23:43;0.38;;;0.20;;
7487;SDS011;3785;52.260;4.728;2023-07-20T10:27:04;0.20;;;0.20;;
7487;SDS011;3785;52.260;4.728;2023-07-20T10:30:25;1.33;;;0.50;;
7487;SDS011;3785;52.260;4.728;2023-07-20T10:33:46;0.20;;;0.20;;
7487;SDS011;3785;52.260;4.728;2023-07-20T10:37:07;0.30;;;0.20;;
7487;SDS011;3785;52.260;4.728;2023-07-20T10:40:29;0.38;;;0.20;;
7487;SDS011;3785;52.260;4.728;2023-07-20T10:44:08;0.57;;;0.40;;
7487;SDS011;3785;52.260;4.728;2023-07-20T10:47:29;0.43;;;0.20;;
7487;SDS011;3785;52.260;4.728;2023-07-20T10:51:12;0.50;;;0.28;;
7487;SDS011;3785;52.260;4.728;2023-07-20T10:54:34;0.63;;;0.30;;
7487;SDS011;3785;52.260;4.728;2023-07-20T10:58:06;0.63;;;0.28;;
7487;SDS011;3785;52.260;4.728;2023-07-20T11:01:29;0.20;;;0.10;;
7487;SDS011;3785;52.260;4.728;2023-07-20T11:04:51;0.73;;;0.30;;
7487;SDS011;3785;52.260;4.728;2023-07-20T11:08:11;1.48;;;0.38;;
7487;SDS011;3785;52.260;4.728;2023-07-20T11:11:35;0.50;;;0.20;;
7487;SDS011;3785;52.260;4.728;2023-07-20T11:14:57;0.55;;;0.30;;
7487;SDS011;3785;52.260;4.728;2023-07-20T11:18:18;0.30;;;0.20;;
7487;SDS011;3785;52.260;4.728;2023-07-20T11:21:42;0.52;;;0.40;;
7487;SDS011;3785;52.260;4.728;2023-07-20T11:25:04;0.60;;;0.20;;
7487;SDS011;3785;52.260;4.728;2023-07-20T11:28:25;0.45;;;0.20;;
7487;SDS011;3785;52.260;4.728;2023-07-20T11:31:46;0.98;;;0.10;;
7487;SDS011;3785;52.260;4.728;2023-07-20T11:35:12;0.60;;;0.30;;
7487;SDS011;3785;52.260;4.728;2023-07-20T11:38:32;0.30;;;0.20;;
7487;SDS011;3785;52.260;4.728;2023-07-20T11:41:54;0.75;;;0.40;;
7487;SDS011;3785;52.260;4.728;2023-07-20T11:45:19;0.20;;;0.10;;
7487;SDS011;3785;52.260;4.728;2023-07-20T11:48:40;0.28;;;0.20;;
7487;SDS011;3785;52.260;4.728;2023-07-20T11:52:00;0.40;;;0.25;;
7487;SDS011;3785;52.260;4.728;2023-07-20T11:55:21;0.63;;;0.20;;
7487;SDS011;3785;52.260;4.728;2023-07-20T11:58:45;0.52;;;0.38;;
7487;SDS011;3785;52.260;4.728;2023-07-20T12:02:06;1.30;;;0.30;;
7487;SDS011;3785;52.260;4.728;2023-07-20T12:05:27;2.35;;;0.55;;
7487;SDS011;3785;52.260;4.728;2023-07-20T12:08:47;0.20;;;0.20;;
7487;SDS011;3785;52.260;4.728;2023-07-20T12:12:11;0.32;;;0.20;;
7487;SDS011;3785;52.260;4.728;2023-07-20T12:15:32;0.40;;;0.30;;
7487;SDS011;3785;52.260;4.728;2023-07-20T12:19:26;1.15;;;0.20;;
7487;SDS011;3785;52.260;4.728;2023-07-20T12:22:40;0.95;;;0.20;;
7487;SDS011;3785;52.260;4.728;2023-07-20T12:26:01;0.10;;;0.10;;
7487;SDS011;3785;52.260;4.728;2023-07-20T12:29:22;0.47;;;0.20;;
7487;SDS011;3785;52.260;4.728;2023-07-20T12:32:43;0.50;;;0.20;;
7487;SDS011;3785;52.260;4.728;2023-07-20T12:36:03;0.63;;;0.22;;
7487;SDS011;3785;52.260;4.728;2023-07-20T12:39:24;1.00;;;0.30;;
7487;SDS011;3785;52.260;4.728;2023-07-20T12:42:45;1.13;;;0.40;;
7487;SDS011;3785;52.260;4.728;2023-07-20T12:46:06;0.45;;;0.20;;
7487;SDS011;3785;52.260;4.728;2023-07-20T12:49:26;0.80;;;0.30;;
7487;SDS011;3785;52.260;4.728;2023-07-20T12:52:47;0.63;;;0.20;;
7487;SDS011;3785;52.260;4.728;2023-07-20T12:56:07;0.57;;;0.22;;
7487;SDS011;3785;52.260;4.728;2023-07-20T12:59:28;0.20;;;0.20;;
7487;SDS011;3785;52.260;4.728;2023-07-20T13:02:49;0.40;;;0.20;;
7487;SDS011;3785;52.260;4.728;2023-07-20T13:06:10;0.77;;;0.22;;
7487;SDS011;3785;52.260;4.728;2023-07-20T13:09:31;0.73;;;0.20;;
7487;SDS011;3785;52.260;4.728;2023-07-20T13:12:51;0.30;;;0.15;;
7487;SDS011;3785;52.260;4.728;2023-07-20T13:16:12;0.70;;;0.30;;
7487;SDS011;3785;52.260;4.728;2023-07-20T13:19:32;0.38;;;0.30;;
7487;SDS011;3785;52.260;4.728;2023-07-20T13:22:54;0.17;;;0.10;;
7487;SDS011;3785;52.260;4.728;2023-07-20T13:26:15;0.35;;;0.15;;
7487;SDS011;3785;52.260;4.728;2023-07-20T13:29:36;1.52;;;0.20;;
7487;SDS011;3785;52.260;4.728;2023-07-20T13:32:56;0.43;;;0.25;;
7487;SDS011;3785;52.260;4.728;2023-07-20T13:36:17;0.40;;;0.20;;
7487;SDS011;3785;52.260;4.728;2023-07-20T13:39:38;0.35;;;0.20;;
7487;SDS011;3785;52.260;4.728;2023-07-20T13:42:58;1.00;;;0.30;;
7487;SDS011;3785;52.260;4.728;2023-07-20T13:46:19;1.13;;;0.30;;
7487;SDS011;3785;52.260;4.728;2023-07-20T13:49:39;0.20;;;0.10;;
7487;SDS011;3785;52.260;4.728;2023-07-20T13:53:00;0.60;;;0.30;;
7487;SDS011;3785;52.260;4.728;2023-07-20T13:56:23;0.20;;;0.10;;
7487;SDS011;3785;52.260;4.728;2023-07-20T13:59:44;0.20;;;0.10;;
7487;SDS011;3785;52.260;4.728;2023-07-20T14:03:05;0.50;;;0.20;;
7487;SDS011;3785;52.260;4.728;2023-07-20T14:06:26;0.45;;;0.20;;
7487;SDS011;3785;52.260;4.728;2023-07-20T14:09:49;0.43;;;0.20;;
7487;SDS011;3785;52.260;4.728;2023-07-20T14:13:10;0.20;;;0.20;;
7487;SDS011;3785;52.260;4.728;2023-07-20T14:16:31;0.22;;;0.17;;
7487;SDS011;3785;52.260;4.728;2023-07-20T14:19:53;0.40;;;0.20;;
7487;SDS011;3785;52.260;4.728;2023-07-20T14:23:13;0.17;;;0.13;;
7487;SDS011;3785;52.260;4.728;2023-07-20T14:26:34;0.20;;;0.10;;
7487;SDS011;3785;52.260;4.728;2023-07-20T14:29:55;0.55;;;0.30;;
7487;SDS011;3785;52.260;4.728;2023-07-20T14:33:15;0.38;;;0.10;;
7487;SDS011;3785;52.260;4.728;2023-07-20T14:36:36;0.43;;;0.30;;
7487;SDS011;3785;52.260;4.728;2023-07-20T14:39:57;0.10;;;0.10;;
7487;SDS011;3785;52.260;4.728;2023-07-20T14:43:17;0.47;;;0.20;;
7487;SDS011;3785;52.260;4.728;2023-07-20T14:46:38;0.55;;;0.20;;
7487;SDS011;3785;52.260;4.728;2023-07-20T14:49:58;0.20;;;0.15;;
7487;SDS011;3785;52.260;4.728;2023-07-20T14:53:19;0.65;;;0.20;;
7487;SDS011;3785;52.260;4.728;2023-07-20T14:56:46;0.17;;;0.10;;
7487;SDS011;3785;52.260;4.728;2023-07-20T15:00:09;0.45;;;0.22;;
7487;SDS011;3785;52.260;4.728;2023-07-20T15:03:30;2.72;;;0.80;;
7487;SDS011;3785;52.260;4.728;2023-07-20T15:06:51;1.40;;;0.40;;
7487;SDS011;3785;52.260;4.728;2023-07-20T15:10:11;0.50;;;0.20;;
7487;SDS011;3785;52.260;4.728;2023-07-20T15:13:32;0.32;;;0.20;;
7487;SDS011;3785;52.260;4.728;2023-07-20T15:16:52;0.93;;;0.30;;
7487;SDS011;3785;52.260;4.728;2023-07-20T15:20:13;0.30;;;0.20;;
7487;SDS011;3785;52.260;4.728;2023-07-20T15:23:34;0.70;;;0.30;;
7487;SDS011;3785;52.260;4.728;2023-07-20T15:26:54;0.20;;;0.10;;
7487;SDS011;3785;52.260;4.728;2023-07-20T15:30:15;0.40;;;0.25;;
7487;SDS011;3785;52.260;4.728;2023-07-20T15:33:35;0.38;;;0.10;;
7487;SDS011;3785;52.260;4.728;2023-07-20T15:36:56;0.77;;;0.20;;
7487;SDS011;3785;52.260;4.728;2023-07-20T15:40:17;0.25;;;0.20;;
7487;SDS011;3785;52.260;4.728;2023-07-20T15:43:38;0.68;;;0.40;;
7487;SDS011;3785;52.260;4.728;2023-07-20T15:46:58;0.60;;;0.20;;
7487;SDS011;3785;52.260;4.728;2023-07-20T15:50:19;0.60;;;0.30;;
7487;SDS011;3785;52.260;4.728;2023-07-20T15:53:39;0.70;;;0.35;;
7487;SDS011;3785;52.260;4.728;2023-07-20T15:57:00;0.10;;;0.08;;
7487;SDS011;3785;52.260;4.728;2023-07-20T16:00:21;1.27;;;0.20;;
7487;SDS011;3785;52.260;4.728;2023-07-20T16:03:41;0.20;;;0.20;;
7487;SDS011;3785;52.260;4.728;2023-07-20T16:07:02;1.00;;;0.25;;
7487;SDS011;3785;52.260;4.728;2023-07-20T16:10:22;0.20;;;0.10;;
7487;SDS011;3785;52.260;4.728;2023-07-20T16:13:43;0.95;;;0.10;;
7487;SDS011;3785;52.260;4.728;2023-07-20T16:17:05;0.35;;;0.10;;
7487;SDS011;3785;52.260;4.728;2023-07-20T16:20:25;0.35;;;0.20;;
7487;SDS011;3785;52.260;4.728;2023-07-20T16:23:47;0.52;;;0.30;;
7487;SDS011;3785;52.260;4.728;2023-07-20T16:27:07;0.32;;;0.10;;
7487;SDS011;3785;52.260;4.728;2023-07-20T16:30:28;0.17;;;0.10;;
7487;SDS011;3785;52.260;4.728;2023-07-20T16:33:48;0.68;;;0.30;;
7487;SDS011;3785;52.260;4.728;2023-07-20T16:37:09;0.40;;;0.20;;
7487;SDS011;3785;52.260;4.728;2023-07-20T16:40:29;0.60;;;0.20;;
7487;SDS011;3785;52.260;4.728;2023-07-20T16:43:50;0.65;;;0.20;;
7487;SDS011;3785;52.260;4.728;2023-07-20T16:47:12;0.20;;;0.20;;
7487;SDS011;3785;52.260;4.728;2023-07-20T16:50:32;0.50;;;0.30;;
7487;SDS011;3785;52.260;4.728;2023-07-20T16:53:53;0.25;;;0.20;;
7487;SDS011;3785;52.260;4.728;2023-07-20T16:57:13;0.70;;;0.25;;
7487;SDS011;3785;52.260;4.728;2023-07-20T17:00:34;0.35;;;0.22;;
7487;SDS011;3785;52.260;4.728;2023-07-20T17:03:55;0.57;;;0.25;;
7487;SDS011;3785;52.260;4.728;2023-07-20T17:07:16;0.60;;;0.20;;
7487;SDS011;3785;52.260;4.728;2023-07-20T17:10:36;0.20;;;0.17;;
7487;SDS011;3785;52.260;4.728;2023-07-20T17:13:57;0.20;;;0.10;;
7487;SDS011;3785;52.260;4.728;2023-07-20T17:17:18;0.80;;;0.30;;
7487;SDS011;3785;52.260;4.728;2023-07-20T17:20:40;0.65;;;0.20;;
7487;SDS011;3785;52.260;4.728;2023-07-20T17:24:01;0.80;;;0.38;;
7487;SDS011;3785;52.260;4.728;2023-07-20T17:27:22;0.40;;;0.22;;
7487;SDS011;3785;52.260;4.728;2023-07-20T17:30:42;0.90;;;0.73;;
7487;SDS011;3785;52.260;4.728;2023-07-20T17:34:03;0.45;;;0.30;;
7487;SDS011;3785;52.260;4.728;2023-07-20T17:37:24;0.40;;;0.25;;
7487;SDS011;3785;52.260;4.728;2023-07-20T17:40:44;0.35;;;0.20;;
7487;SDS011;3785;52.260;4.728;2023-07-20T17:44:05;0.40;;;0.30;;
7487;SDS011;3785;52.260;4.728;2023-07-20T17:47:26;1.08;;;0.20;;
7487;SDS011;3785;52.260;4.728;2023-07-20T17:50:46;0.22;;;0.20;;
7487;SDS011;3785;52.260;4.728;2023-07-20T17:54:07;1.17;;;0.38;;
7487;SDS011;3785;52.260;4.728;2023-07-20T17:57:27;1.05;;;0.45;;
7487;SDS011;3785;52.260;4.728;2023-07-20T18:00:48;0.45;;;0.20;;
7487;SDS011;3785;52.260;4.728;2023-07-20T18:04:08;0.40;;;0.40;;
7487;SDS011;3785;52.260;4.728;2023-07-20T18:07:29;1.00;;;0.32;;
7487;SDS011;3785;52.260;4.728;2023-07-20T18:10:49;0.22;;;0.22;;
7487;SDS011;3785;52.260;4.728;2023-07-20T18:14:10;0.30;;;0.20;;
7487;SDS011;3785;52.260;4.728;2023-07-20T18:17:31;0.93;;;0.40;;
7487;SDS011;3785;52.260;4.728;2023-07-20T18:20:52;0.60;;;0.32;;
7487;SDS011;3785;52.260;4.728;2023-07-20T18:24:13;0.60;;;0.30;;
7487;SDS011;3785;52.260;4.728;2023-07-20T18:27:33;0.40;;;0.30;;
7487;SDS011;3785;52.260;4.728;2023-07-20T18:30:54;0.90;;;0.50;;
7487;SDS011;3785;52.260;4.728;2023-07-20T18:34:15;0.93;;;0.47;;
7487;SDS011;3785;52.260;4.728;2023-07-20T18:37:35;0.77;;;0.32;;
7487;SDS011;3785;52.260;4.728;2023-07-20T18:40:56;0.85;;;0.40;;
7487;SDS011;3785;52.260;4.728;2023-07-20T18:44:16;0.85;;;0.52;;
7487;SDS011;3785;52.260;4.728;2023-07-20T18:47:37;0.88;;;0.30;;
7487;SDS011;3785;52.260;4.728;2023-07-20T18:50:57;0.55;;;0.25;;
7487;SDS011;3785;52.260;4.728;2023-07-20T18:54:18;0.47;;;0.40;;
7487;SDS011;3785;52.260;4.728;2023-07-20T18:57:39;1.08;;;0.40;;
7487;SDS011;3785;52.260;4.728;2023-07-20T19:01:00;0.47;;;0.30;;
7487;SDS011;3785;52.260;4.728;2023-07-20T19:04:21;0.30;;;0.30;;
7487;SDS011;3785;52.260;4.728;2023-07-20T19:07:43;0.60;;;0.20;;
7487;SDS011;3785;52.260;4.728;2023-07-20T19:11:04;1.67;;;0.50;;
7487;SDS011;3785;52.260;4.728;2023-07-20T19:14:25;1.00;;;0.45;;
7487;SDS011;3785;52.260;4.728;2023-07-20T19:17:45;0.88;;;0.50;;
7487;SDS011;3785;52.260;4.728;2023-07-20T19:21:06;0.70;;;0.40;;
7487;SDS011;3785;52.260;4.728;2023-07-20T19:24:27;0.38;;;0.30;;
7487;SDS011;3785;52.260;4.728;2023-07-20T19:27:48;1.10;;;0.40;;
7487;SDS011;3785;52.260;4.728;2023-07-20T19:31:08;0.47;;;0.40;;
7487;SDS011;3785;52.260;4.728;2023-07-20T19:34:29;0.30;;;0.30;;
7487;SDS011;3785;52.260;4.728;2023-07-20T19:37:50;1.08;;;0.40;;
7487;SDS011;3785;52.260;4.728;2023-07-20T19:41:10;0.88;;;0.50;;
7487;SDS011;3785;52.260;4.728;2023-07-20T19:44:31;1.67;;;0.57;;
7487;SDS011;3785;52.260;4.728;2023-07-20T19:47:51;0.75;;;0.50;;
7487;SDS011;3785;52.260;4.728;2023-07-20T19:51:12;0.95;;;0.50;;
7487;SDS011;3785;52.260;4.728;2023-07-20T19:54:32;1.13;;;0.63;;
7487;SDS011;3785;52.260;4.728;2023-07-20T19:57:53;1.00;;;0.60;;
7487;SDS011;3785;52.260;4.728;2023-07-20T20:01:14;1.52;;;0.80;;
7487;SDS011;3785;52.260;4.728;2023-07-20T20:04:34;0.63;;;0.40;;
7487;SDS011;3785;52.260;4.728;2023-07-20T20:07:55;0.93;;;0.52;;
7487;SDS011;3785;52.260;4.728;2023-07-20T20:11:15;0.82;;;0.60;;
7487;SDS011;3785;52.260;4.728;2023-07-20T20:14:36;1.42;;;0.70;;
7487;SDS011;3785;52.260;4.728;2023-07-20T20:17:57;0.90;;;0.63;;
7487;SDS011;3785;52.260;4.728;2023-07-20T20:21:19;2.45;;;0.70;;
7487;SDS011;3785;52.260;4.728;2023-07-20T20:24:42;2.10;;;0.77;;
7487;SDS011;3785;52.260;4.728;2023-07-20T20:28:02;2.45;;;0.80;;
7487;SDS011;3785;52.260;4.728;2023-07-20T20:31:23;1.15;;;0.50;;
7487;SDS011;3785;52.260;4.728;2023-07-20T20:34:43;2.00;;;0.70;;
7487;SDS011;3785;52.260;4.728;2023-07-20T20:38:04;0.80;;;0.50;;
7487;SDS011;3785;52.260;4.728;2023-07-20T20:41:24;1.80;;;0.82;;
7487;SDS011;3785;52.260;4.728;2023-07-20T20:44:49;0.90;;;0.60;;
7487;SDS011;3785;52.260;4.728;2023-07-20T20:48:10;1.15;;;0.60;;
7487;SDS011;3785;52.260;4.728;2023-07-20T20:51:31;2.35;;;0.65;;
7487;SDS011;3785;52.260;4.728;2023-07-20T20:54:52;1.35;;;0.68;;